Time;durP1;ratioP1;P1;durP2;ratioP2;P2;SDS_P1;SDS_P2;PMS_P1;PMS_P2;Temp;Humidity;BMP_temperature;BMP_pressure;BME280_temperature;BME280_humidity;BME280_pressure;Samples;Min_cycle;Max_cycle;Signal;HPM_P1;HPM_P2
2021/07/19 00:00:13;;;;;;;12.70;7.68;;;18.00;99.90;;;;;;5028292;28;20514;-57
2021/07/19 00:02:41;;;;;;;11.38;7.80;;;18.00;99.90;;;;;;5021923;28;20820;-50
2021/07/19 00:05:12;;;;;;;13.40;8.15;;;17.90;99.90;;;;;;5027731;28;20045;-48
2021/07/19 00:07:38;;;;;;;10.93;7.72;;;17.90;99.90;;;;;;5028594;28;20148;-50
2021/07/19 00:10:08;;;;;;;11.05;7.57;;;17.90;99.90;;;;;;5028428;28;20076;-49
2021/07/19 00:12:36;;;;;;;13.10;7.43;;;17.80;99.90;;;;;;5028360;28;20053;-51
2021/07/19 00:15:20;;;;;;;12.35;8.13;;;17.80;99.90;;;;;;5027230;28;20497;-50
2021/07/19 00:17:50;;;;;;;12.93;7.90;;;17.80;99.90;;;;;;5026517;28;20048;-50
2021/07/19 00:20:20;;;;;;;13.25;7.85;;;17.80;99.90;;;;;;5027571;28;20048;-47
2021/07/19 00:22:47;;;;;;;15.30;8.35;;;17.70;99.90;;;;;;5028301;28;20056;-50
2021/07/19 00:25:25;;;;;;;12.15;8.07;;;17.60;99.90;;;;;;5026718;28;20561;-51
2021/07/19 00:27:55;;;;;;;13.25;8.20;;;17.50;99.90;;;;;;5028107;28;20397;-48
2021/07/19 00:30:23;;;;;;;14.93;8.73;;;17.40;99.90;;;;;;5027691;28;20061;-54
2021/07/19 00:32:50;;;;;;;12.90;7.93;;;17.30;99.90;;;;;;5027726;28;20058;-51
2021/07/19 00:35:43;;;;;;;12.63;8.50;;;17.20;99.90;;;;;;5014431;28;20065;-48
2021/07/19 00:38:10;;;;;;;17.90;9.60;;;17.10;99.90;;;;;;5009991;28;20798;-51
2021/07/19 00:40:42;;;;;;;15.70;9.00;;;17.10;99.90;;;;;;5026554;28;20136;-53
2021/07/19 00:43:15;;;;;;;18.38;9.77;;;17.00;99.90;;;;;;5026488;28;20071;-54
2021/07/19 00:45:51;;;;;;;14.13;9.63;;;16.90;99.90;;;;;;5040218;28;20057;-52
2021/07/19 00:48:18;;;;;;;18.95;9.13;;;16.80;99.90;;;;;;5026952;28;20081;-47
2021/07/19 00:50:45;;;;;;;11.40;9.05;;;16.80;99.90;;;;;;5026697;28;20498;-49
2021/07/19 00:53:12;;;;;;;14.95;9.30;;;16.80;99.90;;;;;;5045972;28;20096;-51
2021/07/19 00:55:44;;;;;;;14.23;9.10;;;16.70;99.90;;;;;;5026315;28;20103;-51
2021/07/19 00:58:12;;;;;;;12.65;9.73;;;16.70;99.90;;;;;;5041763;28;20494;-50
2021/07/19 01:00:44;;;;;;;15.75;9.93;;;16.60;99.90;;;;;;5028404;28;20520;-47
2021/07/19 01:03:16;;;;;;;18.55;9.77;;;16.60;99.90;;;;;;5039508;28;20053;-47
2021/07/19 01:05:47;;;;;;;14.00;9.57;;;16.60;99.90;;;;;;5015433;28;20057;-50
2021/07/19 01:08:13;;;;;;;14.35;9.07;;;16.60;99.90;;;;;;5027072;28;20100;-48
2021/07/19 01:10:43;;;;;;;13.13;9.52;;;16.50;99.90;;;;;;5029401;28;20045;-46
2021/07/19 01:13:10;;;;;;;14.25;9.35;;;16.50;99.90;;;;;;5026868;28;20160;-46
2021/07/19 01:15:42;;;;;;;14.55;9.52;;;16.50;99.90;;;;;;5028345;28;20045;-49
2021/07/19 01:18:10;;;;;;;15.77;9.90;;;16.50;99.90;;;;;;5024035;28;20145;-48
2021/07/19 01:21:21;;;;;;;13.38;9.23;;;16.50;99.90;;;;;;5041124;28;20073;-50
2021/07/19 01:24:06;;;;;;;11.60;8.75;;;16.60;99.90;;;;;;5025302;28;20104;-48
2021/07/19 01:27:06;;;;;;;15.50;10.25;;;16.50;99.90;;;;;;5040765;28;20049;-49
2021/07/19 01:29:37;;;;;;;16.05;10.07;;;16.50;99.90;;;;;;5034928;28;20136;-51
2021/07/19 01:32:08;;;;;;;14.68;9.50;;;16.60;99.90;;;;;;5041434;28;20091;-50
2021/07/19 01:34:38;;;;;;;12.85;9.80;;;16.50;99.90;;;;;;5025323;28;20199;-50
2021/07/19 01:37:09;;;;;;;15.73;9.80;;;16.50;99.90;;;;;;5025937;28;20054;-46
2021/07/19 01:40:07;;;;;;;13.93;10.32;;;16.40;99.90;;;;;;5009339;28;20524;-50
2021/07/19 01:42:38;;;;;;;14.13;9.73;;;16.40;99.90;;;;;;5007048;28;20060;-47
2021/07/19 01:45:09;;;;;;;14.13;9.20;;;16.30;99.90;;;;;;5040099;28;20573;-49
2021/07/19 01:47:38;;;;;;;14.82;10.30;;;16.30;99.90;;;;;;5044116;28;20046;-50
2021/07/19 01:50:07;;;;;;;18.98;10.80;;;16.30;99.90;;;;;;5030560;28;20061;-50
2021/07/19 01:52:55;;;;;;;17.13;10.85;;;16.20;99.90;;;;;;5025047;28;20525;-48
2021/07/19 01:55:23;;;;;;;14.77;11.00;;;16.20;99.90;;;;;;5028362;28;20046;-47
2021/07/19 01:57:50;;;;;;;15.85;11.15;;;16.10;99.90;;;;;;5025079;28;20955;-53
2021/07/19 02:00:29;;;;;;;15.27;10.65;;;16.10;99.90;;;;;;5014121;28;20042;-48
2021/07/19 02:03:07;;;;;;;19.65;11.93;;;16.00;99.90;;;;;;4990529;28;20041;-55
2021/07/19 02:05:44;;;;;;;16.40;11.73;;;16.00;99.90;;;;;;5026318;28;20061;-49
2021/07/19 02:08:16;;;;;;;15.35;11.13;;;15.90;99.90;;;;;;5023503;28;20123;-48
2021/07/19 02:11:02;;;;;;;18.13;11.85;;;16.00;99.90;;;;;;5040847;28;20064;-48
2021/07/19 02:13:32;;;;;;;16.08;11.82;;;16.00;99.90;;;;;;5022771;28;20042;-48
2021/07/19 02:16:01;;;;;;;15.90;11.80;;;16.00;99.90;;;;;;5021160;28;20137;-48
2021/07/19 02:18:34;;;;;;;20.58;11.75;;;15.90;99.90;;;;;;5022037;28;20072;-48
2021/07/19 02:21:06;;;;;;;19.52;11.90;;;16.00;99.90;;;;;;5023532;28;20556;-47
2021/07/19 02:23:40;;;;;;;19.77;12.77;;;16.00;99.90;;;;;;5026326;28;20444;-48
2021/07/19 02:26:27;;;;;;;18.08;12.68;;;16.00;99.90;;;;;;5024172;28;20066;-50
2021/07/19 02:28:54;;;;;;;15.27;11.32;;;16.00;99.90;;;;;;5038992;28;20121;-51
2021/07/19 02:31:25;;;;;;;16.20;12.23;;;16.00;99.90;;;;;;5022704;28;20096;-47
2021/07/19 02:33:54;;;;;;;18.08;12.80;;;16.10;99.90;;;;;;5042828;28;20486;-49
2021/07/19 02:36:25;;;;;;;19.95;12.52;;;16.10;99.90;;;;;;5011734;28;20115;-48
2021/07/19 02:38:54;;;;;;;17.50;12.60;;;16.10;99.90;;;;;;5027878;28;20050;-48
2021/07/19 02:41:26;;;;;;;19.55;12.23;;;16.10;99.90;;;;;;5029357;28;20050;-49
2021/07/19 02:44:00;;;;;;;19.10;13.07;;;16.10;99.90;;;;;;5046364;28;20399;-52
2021/07/19 02:46:42;;;;;;;19.55;12.88;;;16.20;99.90;;;;;;5031391;28;20127;-47
2021/07/19 02:49:14;;;;;;;15.88;12.90;;;16.20;99.90;;;;;;5024876;28;20081;-49
2021/07/19 02:51:48;;;;;;;20.13;14.07;;;16.20;99.90;;;;;;5031508;28;20045;-50
2021/07/19 02:54:19;;;;;;;20.67;12.07;;;16.30;99.90;;;;;;5029177;28;20051;-46
2021/07/19 02:56:48;;;;;;;15.88;12.05;;;16.40;99.90;;;;;;5041844;28;20406;-45
2021/07/19 02:59:16;;;;;;;21.20;12.75;;;16.40;99.90;;;;;;5023118;28;20130;-49
2021/07/19 03:01:56;;;;;;;17.88;13.13;;;16.40;99.90;;;;;;5052474;28;20413;-50
2021/07/19 03:04:25;;;;;;;17.55;13.18;;;16.40;99.90;;;;;;5028947;28;20463;-46
2021/07/19 03:06:56;;;;;;;18.25;13.70;;;16.40;99.90;;;;;;5030158;28;20037;-46
2021/07/19 03:09:33;;;;;;;17.15;13.02;;;16.40;99.90;;;;;;5044470;28;20047;-48
2021/07/19 03:12:02;;;;;;;15.38;12.02;;;16.40;99.90;;;;;;5029146;28;20076;-50
2021/07/19 03:14:35;;;;;;;;;;;16.40;99.90;;;;;;5043356;28;20072;-45
2021/07/19 03:17:06;;;;;;;18.38;12.40;;;16.40;99.90;;;;;;5028137;28;19921;-45
2021/07/19 03:19:45;;;;;;;16.67;11.60;;;16.40;99.90;;;;;;5026275;28;20069;-51
2021/07/19 03:22:20;;;;;;;20.10;12.63;;;16.40;99.90;;;;;;5050687;28;20362;-47
2021/07/19 03:25:13;;;;;;;18.60;12.55;;;16.40;99.90;;;;;;5028006;28;20068;-47
2021/07/19 03:27:46;;;;;;;18.13;11.50;;;16.30;99.90;;;;;;5030195;28;20613;-46
2021/07/19 03:30:17;;;;;;;18.55;11.48;;;16.40;99.90;;;;;;5042556;28;20080;-50
2021/07/19 03:32:46;;;;;;;;;;;16.40;99.90;;;;;;5033229;28;20053;-46
2021/07/19 03:35:22;;;;;;;18.42;12.30;;;16.50;99.90;;;;;;5027049;28;19921;-48
2021/07/19 03:37:50;;;;;;;16.48;11.30;;;16.50;99.90;;;;;;5050877;28;20049;-48
2021/07/19 03:40:28;;;;;;;17.15;11.30;;;16.40;99.90;;;;;;5025283;28;20104;-46
2021/07/19 03:43:17;;;;;;;17.92;12.00;;;16.50;99.90;;;;;;5036764;28;20049;-49
2021/07/19 03:45:46;;;;;;;17.27;11.80;;;16.50;99.90;;;;;;5028233;28;20400;-48
2021/07/19 03:48:17;;;;;;;18.67;12.25;;;16.50;99.90;;;;;;5043857;28;20058;-48
2021/07/19 03:50:47;;;;;;;17.98;12.18;;;16.50;99.90;;;;;;5043274;28;20058;-47
2021/07/19 03:53:14;;;;;;;16.77;11.65;;;16.50;99.90;;;;;;5031834;28;20517;-49
2021/07/19 03:55:44;;;;;;;17.25;10.68;;;16.50;99.90;;;;;;5027718;28;20060;-49
2021/07/19 03:58:12;;;;;;;19.15;11.45;;;16.50;99.90;;;;;;5042366;28;20083;-46
2021/07/19 04:00:44;;;;;;;18.25;11.90;;;16.50;99.90;;;;;;5025713;28;20140;-47
2021/07/19 04:03:23;;;;;;;15.15;10.55;;;16.50;99.90;;;;;;5028523;28;20072;-51
2021/07/19 04:05:59;;;;;;;14.43;11.65;;;16.60;99.90;;;;;;5048557;28;20540;-51
2021/07/19 04:08:35;;;;;;;16.63;11.05;;;16.60;99.90;;;;;;5043216;28;20413;-49
2021/07/19 04:11:03;;;;;;;16.20;11.20;;;16.60;99.90;;;;;;5024262;28;20068;-50
2021/07/19 04:13:32;;;;;;;19.83;11.10;;;16.60;99.90;;;;;;5023754;28;20088;-49
2021/07/19 04:16:07;;;;;;;16.25;11.32;;;16.60;99.90;;;;;;5038257;28;20059;-46
2021/07/19 04:18:34;;;;;;;16.30;11.20;;;16.60;99.90;;;;;;5026901;28;20094;-51
2021/07/19 04:21:14;;;;;;;17.00;11.50;;;16.60;99.90;;;;;;5018264;28;20045;-51
2021/07/19 04:23:51;;;;;;;15.88;10.75;;;16.50;99.90;;;;;;5049665;28;20071;-49
2021/07/19 04:26:21;;;;;;;19.08;11.63;;;16.60;99.90;;;;;;5042801;28;20053;-51
2021/07/19 04:29:03;;;;;;;15.40;10.85;;;16.60;99.90;;;;;;5024965;28;20133;-50
2021/07/19 04:31:39;;;;;;;16.73;10.57;;;16.60;99.90;;;;;;5013598;28;20042;-48
2021/07/19 04:34:13;;;;;;;16.33;11.18;;;16.70;99.90;;;;;;5031074;28;20049;-47
2021/07/19 04:36:47;;;;;;;13.55;10.60;;;16.70;99.90;;;;;;5026306;28;20057;-49
2021/07/19 04:39:13;;;;;;;15.00;11.60;;;16.70;99.90;;;;;;5025633;28;20505;-48
2021/07/19 04:41:41;;;;;;;15.00;11.05;;;16.70;99.90;;;;;;5041158;28;20058;-53
2021/07/19 04:44:10;;;;;;;14.20;10.70;;;16.70;99.90;;;;;;5030066;28;20038;-47
2021/07/19 04:46:36;;;;;;;17.02;10.70;;;16.80;99.90;;;;;;5041155;28;20060;-51
2021/07/19 04:49:02;;;;;;;15.55;11.75;;;16.70;99.90;;;;;;5031491;28;20126;-49
2021/07/19 04:51:32;;;;;;;16.23;11.73;;;16.80;99.90;;;;;;5024887;28;20045;-50
2021/07/19 04:54:03;;;;;;;16.90;11.02;;;16.80;99.90;;;;;;5019387;28;20118;-47
2021/07/19 04:56:33;;;;;;;14.32;10.82;;;16.80;99.90;;;;;;5027642;28;20894;-48
2021/07/19 04:59:02;;;;;;;16.40;11.55;;;16.90;99.90;;;;;;5029719;28;20059;-49
2021/07/19 05:01:30;;;;;;;17.90;11.95;;;16.90;99.90;;;;;;5024529;28;20045;-52
2021/07/19 05:03:58;;;;;;;15.85;11.02;;;16.90;99.90;;;;;;5038472;28;20053;-48
2021/07/19 05:06:28;;;;;;;16.02;10.65;;;16.90;99.90;;;;;;5036225;28;20045;-50
2021/07/19 05:08:56;;;;;;;13.88;10.80;;;16.90;99.90;;;;;;5026366;28;20053;-50
2021/07/19 05:11:27;;;;;;;18.45;11.10;;;17.00;99.90;;;;;;5028487;28;20704;-51
2021/07/19 05:13:54;;;;;;;16.30;10.05;;;17.00;99.90;;;;;;5026417;28;20137;-48
2021/07/19 05:16:21;;;;;;;17.00;11.10;;;17.10;99.90;;;;;;5026571;28;20104;-53
2021/07/19 05:18:48;;;;;;;17.10;11.70;;;17.10;99.90;;;;;;5027004;28;20077;-55
2021/07/19 05:21:15;;;;;;;15.02;10.73;;;17.20;99.90;;;;;;5025860;28;20136;-55
2021/07/19 05:23:46;;;;;;;17.85;11.32;;;17.10;99.90;;;;;;5025739;28;20061;-52
2021/07/19 05:26:16;;;;;;;17.15;11.70;;;17.10;99.90;;;;;;5026157;28;20560;-51
2021/07/19 05:28:44;;;;;;;16.25;11.68;;;17.10;99.90;;;;;;5031632;28;20073;-50
2021/07/19 05:31:17;;;;;;;14.55;12.10;;;17.20;99.90;;;;;;5024850;28;20136;-53
2021/07/19 05:33:44;;;;;;;19.35;12.18;;;17.10;99.90;;;;;;5026399;28;20047;-51
2021/07/19 05:36:11;;;;;;;17.13;11.93;;;17.10;99.90;;;;;;5025794;28;20065;-52
2021/07/19 05:38:40;;;;;;;17.73;12.07;;;17.20;99.90;;;;;;5025152;28;20049;-53
2021/07/19 05:41:08;;;;;;;16.23;11.30;;;17.10;99.90;;;;;;5020086;28;20145;-51
2021/07/19 05:43:35;;;;;;;18.70;11.70;;;17.20;99.90;;;;;;5012914;28;20490;-50
2021/07/19 05:46:03;;;;;;;16.33;11.98;;;17.20;99.90;;;;;;5023697;28;20069;-50
2021/07/19 05:48:31;;;;;;;15.20;10.57;;;17.20;99.90;;;;;;5026818;28;20801;-50
2021/07/19 05:50:58;;;;;;;16.00;11.30;;;17.20;99.90;;;;;;5024697;28;20517;-52
2021/07/19 05:53:25;;;;;;;14.88;10.88;;;17.20;99.90;;;;;;5014285;28;20053;-51
2021/07/19 05:55:55;;;;;;;21.35;11.85;;;17.20;99.90;;;;;;5026045;28;20104;-54
2021/07/19 05:58:24;;;;;;;17.40;11.50;;;17.20;99.90;;;;;;5025399;28;20052;-49
2021/07/19 06:00:53;;;;;;;13.40;10.95;;;17.20;99.90;;;;;;5023374;28;20049;-52
2021/07/19 06:03:22;;;;;;;19.42;11.52;;;17.20;99.90;;;;;;5024783;28;20041;-51
2021/07/19 06:05:51;;;;;;;15.82;11.52;;;17.10;99.90;;;;;;5025310;28;20060;-49
2021/07/19 06:08:23;;;;;;;12.98;10.82;;;17.20;99.90;;;;;;5036484;28;20060;-51
2021/07/19 06:10:49;;;;;;;15.70;10.48;;;17.30;99.90;;;;;;5028368;28;20187;-53
2021/07/19 06:13:25;;;;;;;17.30;10.38;;;17.30;99.90;;;;;;5029842;28;20056;-51
2021/07/19 06:15:55;;;;;;;18.75;11.02;;;17.40;99.90;;;;;;5030446;28;20045;-52
2021/07/19 06:18:21;;;;;;;16.67;10.40;;;17.50;99.90;;;;;;5032852;28;20057;-51
2021/07/19 06:20:48;;;;;;;15.20;10.52;;;17.50;99.90;;;;;;5029960;28;20124;-51
2021/07/19 06:23:14;;;;;;;13.05;9.95;;;17.60;99.90;;;;;;5028444;28;20053;-51
2021/07/19 06:25:43;;;;;;;14.13;9.98;;;17.80;99.90;;;;;;5029981;28;20569;-52
2021/07/19 06:28:11;;;;;;;15.02;9.88;;;17.90;99.90;;;;;;5012032;28;20096;-52
2021/07/19 06:30:38;;;;;;;14.55;9.38;;;18.00;99.90;;;;;;5029881;28;20053;-51
2021/07/19 06:33:06;;;;;;;15.90;9.45;;;18.10;99.90;;;;;;5029973;28;20083;-51
2021/07/19 06:35:33;;;;;;;15.27;8.02;;;18.20;99.90;;;;;;5029971;28;20096;-55
2021/07/19 06:38:02;;;;;;;14.88;8.73;;;18.30;99.90;;;;;;5044690;28;20065;-50
2021/07/19 06:40:29;;;;;;;10.65;7.20;;;18.40;99.90;;;;;;5020315;28;20120;-51
2021/07/19 06:42:55;;;;;;;15.45;8.02;;;18.40;99.90;;;;;;5028215;28;20200;-49
2021/07/19 06:45:25;;;;;;;15.15;10.25;;;18.40;99.90;;;;;;5010623;28;20074;-51
2021/07/19 06:47:54;;;;;;;15.05;7.97;;;18.40;99.90;;;;;;5025439;28;20576;-55
2021/07/19 06:50:21;;;;;;;19.25;10.75;;;18.50;99.90;;;;;;5024172;28;20525;-53
2021/07/19 06:53:06;;;;;;;15.23;9.48;;;18.50;99.90;;;;;;5027664;28;20103;-59
2021/07/19 06:55:35;;;;;;;13.40;7.45;;;18.60;99.90;;;;;;5032128;28;20476;-55
2021/07/19 06:58:06;;;;;;;55.38;49.45;;;18.40;99.90;;;;;;5033771;28;20115;-55
2021/07/19 07:00:34;;;;;;;54.03;43.55;;;18.40;99.90;;;;;;5028633;28;20041;-49
2021/07/19 07:03:02;;;;;;;16.33;8.18;;;18.40;99.90;;;;;;5029780;28;20114;-54
2021/07/19 07:05:31;;;;;;;47.33;39.13;;;18.40;99.90;;;;;;5029269;28;20497;-53
2021/07/19 07:07:58;;;;;;;15.18;10.90;;;18.30;99.90;;;;;;5029407;28;20053;-54
2021/07/19 07:10:28;;;;;;;12.40;6.80;;;18.20;99.90;;;;;;5028067;28;20144;-52
2021/07/19 07:12:57;;;;;;;15.82;8.18;;;18.20;99.90;;;;;;5029034;28;20053;-54
2021/07/19 07:15:26;;;;;;;15.38;8.35;;;18.30;99.90;;;;;;5036174;28;20045;-52
2021/07/19 07:18:04;;;;;;;11.07;6.63;;;18.30;99.90;;;;;;5024522;28;20103;-53
2021/07/19 07:20:35;;;;;;;10.65;6.80;;;18.30;99.90;;;;;;5025108;28;20072;-54
2021/07/19 07:23:11;;;;;;;22.27;13.20;;;18.40;99.90;;;;;;5028889;28;20458;-56
2021/07/19 07:25:40;;;;;;;24.52;18.75;;;18.50;99.90;;;;;;5029022;28;20097;-53
2021/07/19 07:28:30;;;;;;;15.02;6.57;;;18.60;99.90;;;;;;5019827;28;20145;-53
2021/07/19 07:30:57;;;;;;;11.02;5.72;;;18.80;99.90;;;;;;5028177;28;20053;-56
2021/07/19 07:33:23;;;;;;;10.55;5.80;;;18.90;99.90;;;;;;5032031;28;20064;-55
2021/07/19 07:35:50;;;;;;;9.88;5.97;;;19.10;99.90;;;;;;5029415;28;20053;-55
2021/07/19 07:38:18;;;;;;;10.48;5.85;;;19.20;99.90;;;;;;5031698;28;20037;-57
2021/07/19 07:40:45;;;;;;;11.55;5.47;;;19.30;99.90;;;;;;5028592;28;20101;-55
2021/07/19 07:43:11;;;;;;;10.40;5.88;;;19.40;99.90;;;;;;5028854;28;21408;-55
2021/07/19 07:45:38;;;;;;;12.93;5.38;;;19.70;99.90;;;;;;5036233;28;20060;-53
2021/07/19 07:48:04;;;;;;;10.07;4.53;;;19.80;99.90;;;;;;5030117;28;20058;-55
2021/07/19 07:50:31;;;;;;;10.40;5.05;;;20.10;99.90;;;;;;5017792;28;20521;-56
2021/07/19 07:52:57;;;;;;;15.40;6.95;;;20.20;99.90;;;;;;5026278;28;20060;-53
2021/07/19 07:55:23;;;;;;;12.75;4.70;;;20.40;99.90;;;;;;5035334;28;20065;-56
2021/07/19 07:57:49;;;;;;;9.35;4.63;;;20.40;99.90;;;;;;5013510;28;20087;-54
2021/07/19 08:00:19;;;;;;;12.52;4.90;;;20.60;99.90;;;;;;5028515;28;20112;-55
2021/07/19 08:02:46;;;;;;;11.82;7.13;;;20.70;99.90;;;;;;5026925;28;20804;-57
2021/07/19 08:05:19;;;;;;;15.43;9.15;;;21.00;99.90;;;;;;5028398;28;20101;-55
2021/07/19 08:07:45;;;;;;;35.22;29.38;;;21.40;99.90;;;;;;5018754;28;20144;-57
2021/07/19 08:10:19;;;;;;;10.48;5.10;;;21.70;99.90;;;;;;5028129;28;20053;-57
2021/07/19 08:12:47;;;;;;;10.40;7.50;;;21.80;95.40;;;;;;5027788;28;20042;-55
2021/07/19 08:15:15;;;;;;;10.00;6.07;;;22.40;97.80;;;;;;5027715;28;20446;-57
2021/07/19 08:17:42;;;;;;;10.52;5.63;;;22.60;91.20;;;;;;5027137;28;20123;-57
2021/07/19 08:20:12;;;;;;;9.07;5.15;;;22.40;88.90;;;;;;5027954;28;20680;-55
2021/07/19 08:22:39;;;;;;;8.63;5.28;;;22.60;90.60;;;;;;5027610;28;20545;-56
2021/07/19 08:25:17;;;;;;;10.98;5.85;;;22.70;91.30;;;;;;5027430;28;20141;-54
2021/07/19 08:27:49;;;;;;;11.05;6.65;;;22.20;87.70;;;;;;5027563;28;20041;-54
2021/07/19 08:30:18;;;;;;;7.65;5.32;;;22.00;89.10;;;;;;5028068;28;20520;-57
2021/07/19 08:32:46;;;;;;;9.65;6.28;;;21.80;90.50;;;;;;5031960;28;20053;-56
2021/07/19 08:35:15;;;;;;;8.90;5.00;;;21.40;88.80;;;;;;5029020;28;20055;-53
2021/07/19 08:37:44;;;;;;;9.77;5.53;;;21.10;92.10;;;;;;5027187;28;20069;-57
2021/07/19 08:40:12;;;;;;;9.90;6.03;;;20.90;91.20;;;;;;5039199;28;20047;-55
2021/07/19 08:42:48;;;;;;;16.13;12.77;;;20.80;94.10;;;;;;5022408;28;20080;-54
2021/07/19 08:45:15;;;;;;;9.45;6.28;;;20.70;95.50;;;;;;5008026;28;20387;-53
2021/07/19 08:47:44;;;;;;;12.02;6.50;;;20.60;96.10;;;;;;5017495;28;20045;-56
2021/07/19 08:50:13;;;;;;;15.38;6.70;;;20.60;97.30;;;;;;5034460;28;20049;-55
2021/07/19 08:52:40;;;;;;;29.40;25.35;;;20.60;97.10;;;;;;5027908;28;20132;-54
2021/07/19 08:55:10;;;;;;;10.68;6.60;;;20.60;97.50;;;;;;5027325;28;20057;-54
2021/07/19 08:57:40;;;;;;;12.48;7.25;;;20.50;97.10;;;;;;5030440;28;20119;-56
2021/07/19 09:00:09;;;;;;;11.75;7.10;;;20.60;97.30;;;;;;5016993;28;20540;-55
2021/07/19 09:02:35;;;;;;;11.32;6.63;;;20.70;98.20;;;;;;5022573;28;20099;-54
2021/07/19 09:05:02;;;;;;;10.02;4.80;;;20.70;95.70;;;;;;5026776;28;20811;-57
2021/07/19 09:07:31;;;;;;;10.48;5.43;;;20.70;97.20;;;;;;5027385;28;20057;-53
2021/07/19 09:09:57;;;;;;;19.48;14.32;;;20.60;97.20;;;;;;5030032;28;20057;-56
2021/07/19 09:12:35;;;;;;;13.50;5.55;;;20.70;96.80;;;;;;5027074;28;20049;-55
2021/07/19 09:15:11;;;;;;;9.95;5.43;;;20.80;96.50;;;;;;5026850;28;20049;-57
2021/07/19 09:17:38;;;;;;;12.98;5.38;;;21.00;95.70;;;;;;5013859;28;20136;-57
2021/07/19 09:20:09;;;;;;;10.60;5.15;;;21.20;95.80;;;;;;5007675;28;20161;-53
2021/07/19 09:22:36;;;;;;;10.73;4.57;;;21.50;92.80;;;;;;5007914;28;20407;-52
2021/07/19 09:25:14;;;;;;;10.02;4.75;;;21.90;91.40;;;;;;5027435;28;20060;-54
2021/07/19 09:27:57;;;;;;;9.70;4.65;;;22.20;90.00;;;;;;5026419;28;20678;-56
2021/07/19 09:30:27;;;;;;;10.18;4.68;;;22.20;85.80;;;;;;5027024;28;20156;-54
2021/07/19 09:33:15;;;;;;;8.07;4.88;;;22.00;82.80;;;;;;5026787;28;20577;-56
2021/07/19 09:35:49;;;;;;;14.45;8.68;;;21.80;82.20;;;;;;5038767;28;21021;-55
2021/07/19 09:38:19;;;;;;;9.90;5.22;;;21.60;85.90;;;;;;5038784;28;20052;-57
2021/07/19 09:40:55;;;;;;;14.20;5.53;;;21.50;85.00;;;;;;5027021;28;20045;-58
2021/07/19 09:43:29;;;;;;;11.10;5.50;;;21.10;85.50;;;;;;5040475;28;20057;-56
2021/07/19 09:46:07;;;;;;;16.05;9.45;;;21.10;88.40;;;;;;5027010;28;20104;-56
2021/07/19 09:48:35;;;;;;;13.65;7.90;;;21.30;90.00;;;;;;5027548;28;20065;-56
2021/07/19 09:51:12;;;;;;;10.68;5.00;;;21.60;90.10;;;;;;5026721;28;20498;-53
2021/07/19 09:53:47;;;;;;;13.93;9.00;;;21.80;87.80;;;;;;5028223;28;20800;-56
2021/07/19 09:56:16;;;;;;;9.13;4.65;;;21.90;87.70;;;;;;5029662;28;20073;-52
2021/07/19 09:58:50;;;;;;;13.63;5.07;;;21.80;86.30;;;;;;5025770;28;20061;-56
2021/07/19 10:01:29;;;;;;;18.42;12.27;;;21.60;87.20;;;;;;5032053;28;20131;-57
2021/07/19 10:04:08;;;;;;;17.30;13.80;;;21.50;83.80;;;;;;5029947;28;20099;-54
2021/07/19 10:06:37;;;;;;;12.25;5.53;;;21.40;87.80;;;;;;5026023;28;20055;-57
2021/07/19 10:09:07;;;;;;;12.38;7.88;;;21.30;88.30;;;;;;5026013;28;20492;-54
2021/07/19 10:11:39;;;;;;;8.38;4.90;;;21.40;88.10;;;;;;5026478;28;20076;-53
2021/07/19 10:14:07;;;;;;;9.68;4.75;;;21.30;85.70;;;;;;5026903;28;20049;-54
2021/07/19 10:16:37;;;;;;;7.45;4.35;;;21.60;87.10;;;;;;5027082;28;20053;-56
2021/07/19 10:19:08;;;;;;;8.00;4.07;;;22.20;87.10;;;;;;5027334;28;20841;-56
2021/07/19 10:21:34;;;;;;;12.18;5.68;;;22.90;84.40;;;;;;5033200;28;20441;-53
2021/07/19 10:24:06;;;;;;;10.77;5.30;;;22.90;81.80;;;;;;5025677;28;20057;-56
2021/07/19 10:26:33;;;;;;;8.13;4.63;;;23.40;78.90;;;;;;5004450;28;20053;-57
2021/07/19 10:29:02;;;;;;;8.50;4.95;;;23.50;77.80;;;;;;5017978;28;20044;-56
2021/07/19 10:31:30;;;;;;;10.77;5.07;;;24.00;72.40;;;;;;5026123;28;20489;-54
2021/07/19 10:34:00;;;;;;;12.07;6.93;;;24.00;66.60;;;;;;5024963;28;20076;-55
2021/07/19 10:36:38;;;;;;;8.35;4.32;;;24.30;68.00;;;;;;5024385;28;20053;-56
2021/07/19 10:39:34;;;;;;;10.63;5.72;;;24.90;67.00;;;;;;5027439;28;20490;-56
2021/07/19 10:42:12;;;;;;;12.10;7.30;;;25.20;63.80;;;;;;5023206;28;20100;-55
2021/07/19 10:44:46;;;;;;;10.95;6.05;;;25.30;63.40;;;;;;5022765;28;20058;-56
2021/07/19 10:47:16;;;;;;;7.93;4.00;;;25.40;63.50;;;;;;5021795;28;20646;-54
2021/07/19 10:50:00;;;;;;;9.00;4.95;;;24.80;62.40;;;;;;5026055;28;20100;-52
2021/07/19 10:52:37;;;;;;;10.93;5.40;;;24.80;63.60;;;;;;5027046;28;20576;-58
2021/07/19 10:55:25;;;;;;;6.85;4.30;;;24.90;62.30;;;;;;5037562;28;20040;-54
2021/07/19 10:58:04;;;;;;;9.40;5.57;;;24.70;62.90;;;;;;5027181;28;20044;-54
2021/07/19 11:00:40;;;;;;;7.75;4.22;;;24.70;64.20;;;;;;5009719;28;20785;-57
2021/07/19 11:03:13;;;;;;;24.33;20.52;;;24.60;65.10;;;;;;5023245;28;20119;-58
2021/07/19 11:05:43;;;;;;;9.18;6.72;;;24.40;65.50;;;;;;5028156;28;20049;-55
2021/07/19 11:08:27;;;;;;;10.25;4.60;;;24.60;64.30;;;;;;5026131;28;20079;-54
2021/07/19 11:10:57;;;;;;;8.63;4.55;;;24.60;60.70;;;;;;5021502;28;20041;-57
2021/07/19 11:13:31;;;;;;;10.85;5.15;;;24.40;62.90;;;;;;5028854;28;20076;-55
2021/07/19 11:15:58;;;;;;;9.18;4.90;;;24.50;65.00;;;;;;5027386;28;20140;-57
2021/07/19 11:18:30;;;;;;;7.93;4.63;;;24.50;62.50;;;;;;5028407;28;20038;-56
2021/07/19 11:21:01;;;;;;;8.45;4.07;;;24.60;60.40;;;;;;5027773;28;20045;-56
2021/07/19 11:23:35;;;;;;;;;;;24.50;60.20;;;;;;5029518;28;20049;-56
2021/07/19 11:26:05;;;;;;;10.27;4.88;;;23.90;59.90;;;;;;5029752;28;20067;-56
2021/07/19 11:28:43;;;;;;;7.88;4.07;;;24.70;62.70;;;;;;5009057;28;20053;-58
2021/07/19 11:31:30;;;;;;;8.90;4.53;;;25.60;59.00;;;;;;5030085;28;20227;-55
2021/07/19 11:34:04;;;;;;;7.40;4.40;;;24.90;59.80;;;;;;5027079;28;20569;-59
2021/07/19 11:36:50;;;;;;;9.07;5.07;;;25.70;59.90;;;;;;5028210;28;20058;-57
2021/07/19 11:39:21;;;;;;;9.13;5.85;;;25.90;57.00;;;;;;5031298;28;20042;-55
2021/07/19 11:42:28;;;;;;;14.98;12.93;;;26.20;56.80;;;;;;5028514;28;20152;-58
2021/07/19 11:45:16;;;;;;;8.60;4.50;;;26.40;55.60;;;;;;4984845;28;20057;-57
2021/07/19 11:47:53;;;;;;;21.75;19.55;;;26.70;56.20;;;;;;4985681;28;20093;-55
2021/07/19 11:50:22;;;;;;;13.88;10.52;;;26.80;56.20;;;;;;4977135;28;20046;-57
2021/07/19 11:52:51;;;;;;;9.00;6.30;;;26.80;55.40;;;;;;4987530;28;20076;-57
2021/07/19 11:55:20;;;;;;;9.15;7.93;;;26.90;53.10;;;;;;4969705;28;20057;-57
2021/07/19 11:57:50;;;;;;;9.82;4.82;;;26.50;51.00;;;;;;4986013;28;20050;-54
2021/07/19 12:00:34;;;;;;;7.45;4.07;;;27.10;51.60;;;;;;4986293;28;20054;-58
2021/07/19 12:03:16;;;;;;;6.40;3.78;;;26.90;52.10;;;;;;4984071;28;20054;-55
2021/07/19 12:05:49;;;;;;;6.13;4.07;;;27.20;51.30;;;;;;4986744;28;20046;-57
2021/07/19 12:08:15;;;;;;;13.13;11.75;;;26.60;50.50;;;;;;4985457;28;20050;-57
2021/07/19 12:10:47;;;;;;;6.70;5.00;;;26.40;51.30;;;;;;4986068;28;20050;-58
2021/07/19 12:13:16;;;;;;;9.10;6.45;;;26.00;51.70;;;;;;4986394;28;20454;-57
2021/07/19 12:15:55;;;;;;;12.00;9.93;;;25.90;52.30;;;;;;4986880;28;20092;-57
2021/07/19 12:18:42;;;;;;;8.15;5.25;;;25.90;51.50;;;;;;4993988;28;20221;-59
2021/07/19 12:21:14;;;;;;;8.52;5.57;;;25.80;50.40;;;;;;5007950;28;20076;-57
2021/07/19 12:23:51;;;;;;;8.90;5.95;;;26.20;51.30;;;;;;5028633;28;20053;-55
2021/07/19 12:26:34;;;;;;;10.15;8.88;;;26.90;51.00;;;;;;5028911;28;20053;-57
2021/07/19 12:29:04;;;;;;;7.68;6.70;;;27.00;49.20;;;;;;5028207;28;20590;-56
2021/07/19 12:31:32;;;;;;;;;;;26.80;48.40;;;;;;5028665;28;20705;-53
2021/07/19 12:34:00;;;;;;;9.27;5.35;;;27.20;50.80;;;;;;5032153;28;19924;-56
2021/07/19 12:36:41;;;;;;;10.73;9.53;;;27.10;49.00;;;;;;5028881;28;20065;-53
2021/07/19 12:39:14;;;;;;;8.65;6.70;;;27.10;48.70;;;;;;5028537;28;20195;-57
2021/07/19 12:41:42;;;;;;;9.73;8.40;;;26.80;47.00;;;;;;5012788;28;20058;-57
2021/07/19 12:44:11;;;;;;;8.57;6.22;;;26.70;48.30;;;;;;5027770;28;20399;-53
2021/07/19 12:46:45;;;;;;;11.95;10.68;;;26.50;49.00;;;;;;5027746;28;20106;-56
2021/07/19 12:49:11;;;;;;;8.88;7.32;;;26.30;49.80;;;;;;5033040;28;20053;-56
2021/07/19 12:51:41;;;;;;;9.55;7.05;;;26.00;49.40;;;;;;5034631;28;20041;-54
2021/07/19 12:54:09;;;;;;;9.15;8.07;;;26.00;48.20;;;;;;5027731;28;20061;-57
2021/07/19 12:56:40;;;;;;;8.82;6.75;;;26.90;49.60;;;;;;5026850;28;20505;-57
2021/07/19 12:59:10;;;;;;;10.13;8.68;;;27.20;46.50;;;;;;5027153;28;20061;-57